Time,TemperatureF,DewpointF,PressureIn,WindDirection,WindDirectionDegrees,WindSpeedMPH,WindSpeedGustMPH,Humidity,HourlyPrecipIn,Conditions,Clouds,dailyrainin,SoftwareType,DateUTC
2013-01-01 00:01:00,19.2,13.8,30.14,NNE,29,0.0,1.0,79,0.00,,OVC080,0.00,VWS V14.01,2013-01-01 06:01:00,
2013-01-01 00:06:00,19.0,13.3,30.14,NW,309,0.0,2.0,78,0.00,,OVC080,0.00,VWS V14.01,2013-01-01 06:06:00,
2013-01-01 00:11:00,18.9,13.5,30.13,NNE,18,0.0,4.0,79,0.00,,OVC080,0.00,VWS V14.01,2013-01-01 06:11:00,
2013-01-01 00:16:00,18.8,13.1,30.14,NNE,27,5.0,5.0,78,0.00,,OVC080,0.00,VWS V14.01,2013-01-01 06:16:00,
2013-01-01 00:21:00,18.7,13.0,30.13,NNW,342,0.0,1.0,78,0.00,,OVC080,0.00,VWS V14.01,2013-01-01 06:21:00,
2013-01-01 00:25:00,18.5,12.8,30.13,NNW,342,1.0,1.0,78,0.00,,OVC080,0.00,VWS V14.01,2013-01-01 06:25:00,
2013-01-01 00:31:00,18.3,12.6,30.13,NE,34,1.0,2.0,78,0.00,,OVC080,0.00,VWS V14.01,2013-01-01 06:31:00,
2013-01-01 00:36:00,18.1,12.4,30.13,NNW,336,1.0,2.0,78,0.00,,OVC080,0.00,VWS V14.01,2013-01-01 06:36:00,
2013-01-01 00:41:00,17.9,12.5,30.13,NNE,22,0.0,0.0,79,0.00,,BKN080,0.00,VWS V14.01,2013-01-01 06:41:00,
2013-01-01 00:46:00,17.7,12.3,30.13,NNE,22,1.0,1.0,79,0.00,,BKN080,0.00,VWS V14.01,2013-01-01 06:46:00,
2013-01-01 00:51:00,17.5,12.1,30.13,NE,42,0.0,0.0,79,0.00,,BKN080,0.00,VWS V14.01,2013-01-01 06:51:00,
2013-01-01 00:56:00,17.2,11.8,30.13,NNE,32,0.0,1.0,79,0.00,,BKN080,0.00,VWS V14.01,2013-01-01 06:56:00,
2013-01-01 01:01:00,17.0,11.9,30.13,NNW,333,1.0,2.0,80,0.00,,FEW080,0.00,VWS V14.01,2013-01-01 07:01:00,
2013-01-01 01:05:00,16.7,11.6,30.13,NNE,12,0.0,0.0,80,0.00,,FEW080,0.00,VWS V14.01,2013-01-01 07:05:00,
2013-01-01 01:10:00,16.6,11.5,30.14,NNE,13,1.0,1.0,80,0.00,,FEW080,0.00,VWS V14.01,2013-01-01 07:10:00,
2013-01-01 01:15:00,16.3,11.2,30.13,North,11,0.0,0.0,80,0.00,,FEW080,0.00,VWS V14.01,2013-01-01 07:15:00,
2013-01-01 01:20:00,16.2,11.1,30.14,North,11,0.0,0.0,80,0.00,,BKN095,0.00,VWS V14.01,2013-01-01 07:20:00,
2013-01-01 01:25:00,16.0,10.9,30.14,North,11,0.0,0.0,80,0.00,,BKN095,0.00,VWS V14.01,2013-01-01 07:25:00,
2013-01-01 01:30:00,15.8,11.0,30.13,North,11,0.0,0.0,81,0.00,,BKN095,0.00,VWS V14.01,2013-01-01 07:30:00,
2013-01-01 01:35:00,15.7,10.9,30.13,NNE,16,0.0,0.0,81,0.00,,BKN095,0.00,VWS V14.01,2013-01-01 07:35:00,
2013-01-01 01:40:00,15.6,10.8,30.13,North,5,0.0,0.0,81,0.00,,SCT095,0.00,VWS V14.01,2013-01-01 07:40:00,
2013-01-01 01:45:00,15.5,10.7,30.13,NNE,15,0.0,4.0,81,0.00,,SCT095,0.00,VWS V14.01,2013-01-01 07:45:00,
2013-01-01 01:50:00,15.4,10.6,30.14,NNE,19,0.0,0.0,81,0.00,,SCT095,0.00,VWS V14.01,2013-01-01 07:50:00,
2013-01-01 01:55:00,15.3,10.5,30.13,NNE,13,0.0,0.0,81,0.00,,SCT095,0.00,VWS V14.01,2013-01-01 07:55:00,
2013-01-01 02:00:00,15.2,10.4,30.13,NNW,342,0.0,0.0,81,0.00,,CLR,0.00,VWS V14.01,2013-01-01 08:00:00,
2013-01-01 02:05:00,15.0,10.2,30.14,NNW,338,0.0,0.0,81,0.00,,CLR,0.00,VWS V14.01,2013-01-01 08:05:00,
2013-01-01 02:10:00,14.8,9.8,30.14,North,5,0.0,0.0,80,0.00,,CLR,0.00,VWS V14.01,2013-01-01 08:10:00,
2013-01-01 02:15:00,14.6,9.8,30.14,North,355,0.0,1.0,81,0.00,,CLR,0.00,VWS V14.01,2013-01-01 08:15:00,
2013-01-01 02:20:00,14.4,9.6,30.14,NNE,25,0.0,0.0,81,0.00,,CLR,0.00,VWS V14.01,2013-01-01 08:20:00,
2013-01-01 02:25:00,14.3,9.3,30.15,NE,35,0.0,1.0,80,0.00,,CLR,0.00,VWS V14.01,2013-01-01 08:25:00,
2013-01-01 02:30:00,14.1,9.4,30.15,NE,36,0.0,0.0,81,0.00,,CLR,0.00,VWS V14.01,2013-01-01 08:30:00,
2013-01-01 02:35:00,14.0,9.3,30.15,NE,35,0.0,0.0,81,0.00,,CLR,0.00,VWS V14.01,2013-01-01 08:35:00,
2013-01-01 02:40:00,14.0,9.3,30.15,NE,38,0.0,0.0,81,0.00,,CLR,0.00,VWS V14.01,2013-01-01 08:40:00,
2013-01-01 02:45:00,13.9,9.2,30.16,WNW,294,0.0,1.0,81,0.00,,CLR,0.00,VWS V14.01,2013-01-01 08:45:00,
2013-01-01 02:50:00,13.9,9.2,30.16,WNW,294,0.0,0.0,81,0.00,,CLR,0.00,VWS V14.01,2013-01-01 08:50:00,
2013-01-01 02:55:00,13.8,9.1,30.16,North,5,0.0,0.0,81,0.00,,CLR,0.00,VWS V14.01,2013-01-01 08:55:00,
2013-01-01 03:00:00,13.7,9.0,30.16,North,5,0.0,0.0,81,0.00,,SCT095,0.00,VWS V14.01,2013-01-01 09:00:00,
2013-01-01 03:05:00,13.7,9.0,30.17,North,360,1.0,1.0,81,0.00,,SCT095,0.00,VWS V14.01,2013-01-01 09:05:00,
2013-01-01 03:10:00,13.6,8.9,30.17,NNE,22,0.0,0.0,81,0.00,,SCT095,0.00,VWS V14.01,2013-01-01 09:10:00,
2013-01-01 03:15:00,13.5,8.8,30.17,NNE,22,0.0,0.0,81,0.00,,SCT095,0.00,VWS V14.01,2013-01-01 09:15:00,
2013-01-01 03:20:00,13.2,8.5,30.16,NNE,22,0.0,0.0,81,0.00,,OVC095,0.00,VWS V14.01,2013-01-01 09:20:00,
2013-01-01 03:25:00,13.1,8.4,30.16,NNE,22,0.0,1.0,81,0.00,,OVC095,0.00,VWS V14.01,2013-01-01 09:25:00,
2013-01-01 03:30:00,12.8,7.8,30.17,NNE,22,0.0,1.0,80,0.00,,OVC095,0.00,VWS V14.01,2013-01-01 09:30:00,
2013-01-01 03:35:00,12.6,7.9,30.16,NE,39,0.0,2.0,81,0.00,,OVC095,0.00,VWS V14.01,2013-01-01 09:35:00,
2013-01-01 03:40:00,12.3,7.6,30.17,NE,39,0.0,1.0,81,0.00,,SCT095,0.00,VWS V14.01,2013-01-01 09:40:00,
2013-01-01 03:45:00,12.2,7.5,30.16,NE,39,0.0,1.0,81,0.00,,SCT095,0.00,VWS V14.01,2013-01-01 09:45:00,
2013-01-01 03:50:00,12.1,7.7,30.17,NE,39,0.0,2.0,82,0.00,,SCT095,0.00,VWS V14.01,2013-01-01 09:50:00,
2013-01-01 03:55:00,11.9,7.5,30.17,NNE,22,1.0,5.0,82,0.00,,SCT095,0.00,VWS V14.01,2013-01-01 09:55:00,
2013-01-01 04:00:00,11.8,7.4,30.17,NNE,22,0.0,1.0,82,0.00,,SCT095,0.00,VWS V14.01,2013-01-01 10:00:00,
2013-01-01 04:05:00,11.7,7.3,30.17,NNE,32,0.0,4.0,82,0.00,,BKN095,0.00,VWS V14.01,2013-01-01 10:05:00,
2013-01-01 04:10:00,11.6,7.2,30.16,NNE,32,0.0,1.0,82,0.00,,BKN095,0.00,VWS V14.01,2013-01-01 10:10:00,
2013-01-01 04:15:00,11.4,7.0,30.16,North,5,0.0,2.0,82,0.00,,BKN095,0.00,VWS V14.01,2013-01-01 10:15:00,
2013-01-01 04:20:00,11.2,6.8,30.16,North,5,0.0,2.0,82,0.00,,BKN095,0.00,VWS V14.01,2013-01-01 10:20:00,
2013-01-01 04:25:00,11.0,6.6,30.17,North,9,0.0,2.0,82,0.00,,OVC095,0.00,VWS V14.01,2013-01-01 10:25:00,
2013-01-01 04:30:00,10.9,6.5,30.17,North,9,1.0,1.0,82,0.00,,OVC095,0.00,VWS V14.01,2013-01-01 10:30:00,
2013-01-01 04:35:00,10.7,6.3,30.17,North,360,0.0,1.0,82,0.00,,OVC095,0.00,VWS V14.01,2013-01-01 10:35:00,
2013-01-01 04:40:00,10.5,6.4,30.17,North,360,0.0,1.0,83,0.00,,OVC095,0.00,VWS V14.01,2013-01-01 10:40:00,
2013-01-01 04:45:00,10.3,6.2,30.17,NNW,344,0.0,0.0,83,0.00,,SCT095,0.00,VWS V14.01,2013-01-01 10:45:00,
2013-01-01 04:50:00,10.1,6.0,30.17,NNW,345,2.0,2.0,83,0.00,,SCT095,0.00,VWS V14.01,2013-01-01 10:50:00,
2013-01-01 04:55:00,10.0,5.9,30.17,North,5,0.0,2.0,83,0.00,,SCT095,0.00,VWS V14.01,2013-01-01 10:55:00,
2013-01-01 05:00:00,9.9,5.8,30.18,North,5,0.0,0.0,83,0.00,,SCT095,0.00,VWS V14.01,2013-01-01 11:00:00,
2013-01-01 05:05:00,9.8,5.9,30.18,North,5,0.0,0.0,84,0.00,,SCT095,0.00,VWS V14.01,2013-01-01 11:05:00,
2013-01-01 05:10:00,9.7,5.6,30.18,North,5,0.0,2.0,83,0.00,,SCT095,0.00,VWS V14.01,2013-01-01 11:10:00,
2013-01-01 05:15:00,9.6,5.8,30.19,North,9,0.0,0.0,84,0.00,,SCT095,0.00,VWS V14.01,2013-01-01 11:15:00,
2013-01-01 05:20:00,9.5,5.7,30.18,North,9,0.0,1.0,84,0.00,,SCT095,0.00,VWS V14.01,2013-01-01 11:20:00,
2013-01-01 05:25:00,9.4,5.6,30.19,North,9,0.0,1.0,84,0.00,,CLR,0.00,VWS V14.01,2013-01-01 11:25:00,
2013-01-01 05:30:00,9.2,5.1,30.18,North,5,0.0,1.0,83,0.00,,CLR,0.00,VWS V14.01,2013-01-01 11:30:00,
2013-01-01 05:35:00,9.0,5.2,30.18,NNE,20,0.0,3.0,84,0.00,,CLR,0.00,VWS V14.01,2013-01-01 11:35:00,
2013-01-01 05:40:00,8.9,5.1,30.19,NNE,24,0.0,0.0,84,0.00,,CLR,0.00,VWS V14.01,2013-01-01 11:40:00,
2013-01-01 05:45:00,8.9,5.1,30.20,NNE,22,0.0,2.0,84,0.00,,CLR,0.00,VWS V14.01,2013-01-01 11:45:00,
2013-01-01 05:50:00,8.7,4.9,30.20,NNE,21,0.0,1.0,84,0.00,,CLR,0.00,VWS V14.01,2013-01-01 11:50:00,
2013-01-01 05:55:00,8.6,4.8,30.19,NNE,24,0.0,2.0,84,0.00,,CLR,0.00,VWS V14.01,2013-01-01 11:55:00,
2013-01-01 06:00:00,8.5,4.7,30.20,NNE,24,0.0,0.0,84,0.00,,CLR,0.00,VWS V14.01,2013-01-01 12:00:00,
2013-01-01 06:05:00,8.3,4.5,30.19,NNE,22,0.0,0.0,84,0.00,,CLR,0.00,VWS V14.01,2013-01-01 12:05:00,
2013-01-01 06:10:00,8.2,4.4,30.19,NNE,21,0.0,1.0,84,0.00,,CLR,0.00,VWS V14.01,2013-01-01 12:10:00,
2013-01-01 06:15:00,8.1,4.3,30.20,NNE,20,0.0,1.0,84,0.00,,CLR,0.00,VWS V14.01,2013-01-01 12:15:00,
2013-01-01 06:20:00,8.0,4.2,30.20,NNE,19,0.0,2.0,84,0.00,,CLR,0.00,VWS V14.01,2013-01-01 12:20:00,
2013-01-01 06:25:00,7.9,4.1,30.21,NNE,19,0.0,1.0,84,0.00,,CLR,0.00,VWS V14.01,2013-01-01 12:25:00,
2013-01-01 06:30:00,7.8,4.0,30.20,NNE,19,0.0,0.0,84,0.00,,CLR,0.00,VWS V14.01,2013-01-01 12:30:00,
2013-01-01 06:35:00,7.7,3.9,30.20,NNE,20,0.0,0.0,84,0.00,,CLR,0.00,VWS V14.01,2013-01-01 12:35:00,
2013-01-01 06:40:00,7.6,3.8,30.19,NNE,20,0.0,1.0,84,0.00,,CLR,0.00,VWS V14.01,2013-01-01 12:40:00,
2013-01-01 06:45:00,7.5,3.7,30.20,NNE,19,0.0,0.0,84,0.00,,CLR,0.00,VWS V14.01,2013-01-01 12:45:00,
2013-01-01 06:50:00,7.4,3.8,30.20,NNE,20,1.0,1.0,85,0.00,,CLR,0.00,VWS V14.01,2013-01-01 12:50:00,
2013-01-01 06:55:00,7.3,3.8,30.21,North,355,0.0,1.0,85,0.00,,CLR,0.00,VWS V14.01,2013-01-01 12:55:00,
2013-01-01 07:00:00,7.2,3.7,30.21,North,355,0.0,0.0,85,0.00,,CLR,0.00,VWS V14.01,2013-01-01 13:00:00,
2013-01-01 07:05:00,7.2,3.7,30.22,NNW,336,0.0,2.0,85,0.00,,CLR,0.00,VWS V14.01,2013-01-01 13:05:00,
2013-01-01 07:10:00,7.2,3.7,30.22,NNW,336,0.0,0.0,85,0.00,,CLR,0.00,VWS V14.01,2013-01-01 13:10:00,
2013-01-01 07:15:00,7.1,3.5,30.22,NNW,336,0.0,0.0,85,0.00,,CLR,0.00,VWS V14.01,2013-01-01 13:15:00,
2013-01-01 07:20:00,6.9,3.3,30.21,NNW,336,0.0,0.0,85,0.00,,CLR,0.00,VWS V14.01,2013-01-01 13:20:00,
2013-01-01 07:25:00,6.8,3.3,30.20,NNW,336,0.0,0.0,85,0.00,,CLR,0.00,VWS V14.01,2013-01-01 13:25:00,
2013-01-01 07:30:00,6.7,3.2,30.20,NW,304,0.0,1.0,85,0.00,,CLR,0.00,VWS V14.01,2013-01-01 13:30:00,
2013-01-01 07:35:00,6.7,3.2,30.19,NW,305,0.0,1.0,85,0.00,,CLR,0.00,VWS V14.01,2013-01-01 13:35:00,
2013-01-01 07:40:00,6.7,3.2,30.20,NNW,334,0.0,3.0,85,0.00,,CLR,0.00,VWS V14.01,2013-01-01 13:40:00,
2013-01-01 07:45:00,6.6,3.1,30.20,NNW,336,0.0,2.0,85,0.00,,CLR,0.00,VWS V14.01,2013-01-01 13:45:00,
2013-01-01 07:50:00,6.6,3.1,30.20,NNW,338,0.0,2.0,85,0.00,,CLR,0.00,VWS V14.01,2013-01-01 13:50:00,
2013-01-01 07:55:00,6.7,3.2,30.20,NNW,338,0.0,1.0,85,0.00,,CLR,0.00,VWS V14.01,2013-01-01 13:55:00,
2013-01-01 08:00:00,6.9,3.3,30.20,NNE,28,0.0,3.0,85,0.00,,CLR,0.00,VWS V14.01,2013-01-01 14:00:00,
2013-01-01 08:05:00,7.2,3.7,30.20,NNE,28,0.0,0.0,85,0.00,,CLR,0.00,VWS V14.01,2013-01-01 14:05:00,
2013-01-01 08:10:00,7.5,3.9,30.21,NNE,28,2.0,4.0,85,0.00,,CLR,0.00,VWS V14.01,2013-01-01 14:10:00,
2013-01-01 08:15:00,7.8,4.2,30.21,NNE,22,1.0,5.0,85,0.00,,CLR,0.00,VWS V14.01,2013-01-01 14:15:00,
2013-01-01 08:20:00,8.2,4.4,30.20,NNE,23,2.0,3.0,84,0.00,,CLR,0.00,VWS V14.01,2013-01-01 14:20:00,
2013-01-01 08:25:00,8.6,4.8,30.20,NNE,27,1.0,4.0,84,0.00,,CLR,0.00,VWS V14.01,2013-01-01 14:25:00,
2013-01-01 08:30:00,8.9,4.8,30.20,NNE,14,0.0,5.0,83,0.00,,CLR,0.00,VWS V14.01,2013-01-01 14:30:00,
2013-01-01 08:35:00,9.2,5.1,30.20,NNE,24,4.0,6.0,83,0.00,,CLR,0.00,VWS V14.01,2013-01-01 14:35:00,
2013-01-01 08:40:00,9.4,4.8,30.21,NNE,12,6.0,6.0,81,0.00,,CLR,0.00,VWS V14.01,2013-01-01 14:40:00,
2013-01-01 08:45:00,9.7,5.1,30.20,NNE,28,0.0,6.0,81,0.00,,CLR,0.00,VWS V14.01,2013-01-01 14:45:00,
2013-01-01 08:50:00,10.3,5.6,30.20,NNE,22,0.0,2.0,81,0.00,,CLR,0.00,VWS V14.01,2013-01-01 14:50:00,
2013-01-01 08:55:00,10.7,5.8,30.20,NNE,22,2.0,2.0,80,0.00,,CLR,0.00,VWS V14.01,2013-01-01 14:55:00,
2013-01-01 09:00:00,10.9,5.9,30.20,NNE,22,3.0,3.0,80,0.00,,CLR,0.00,VWS V14.01,2013-01-01 15:00:00,
2013-01-01 09:05:00,11.2,6.0,30.20,NNE,22,0.0,4.0,79,0.00,,CLR,0.00,VWS V14.01,2013-01-01 15:05:00,
2013-01-01 09:10:00,11.5,6.3,30.20,NE,37,0.0,4.0,79,0.00,,CLR,0.00,VWS V14.01,2013-01-01 15:10:00,
2013-01-01 09:15:00,11.8,6.6,30.20,NNW,343,1.0,4.0,79,0.00,,CLR,0.00,VWS V14.01,2013-01-01 15:15:00,
2013-01-01 09:20:00,12.2,6.7,30.20,NNE,16,3.0,6.0,78,0.00,,CLR,0.00,VWS V14.01,2013-01-01 15:20:00,
2013-01-01 09:25:00,12.5,7.0,30.20,NNE,23,2.0,5.0,78,0.00,,CLR,0.00,VWS V14.01,2013-01-01 15:25:00,
2013-01-01 09:30:00,12.6,6.8,30.21,NNE,19,0.0,8.0,77,0.00,,CLR,0.00,VWS V14.01,2013-01-01 15:30:00,
2013-01-01 09:35:00,13.0,7.2,30.21,North,9,1.0,5.0,77,0.00,,CLR,0.00,VWS V14.01,2013-01-01 15:35:00,
2013-01-01 09:39:00,13.1,7.0,30.22,NNE,15,0.0,5.0,76,0.00,,CLR,0.00,VWS V14.01,2013-01-01 15:39:00,
2013-01-01 09:44:00,13.4,7.3,30.22,NNE,25,1.0,5.0,76,0.00,,CLR,0.00,VWS V14.01,2013-01-01 15:44:00,
2013-01-01 09:49:00,13.3,7.2,30.23,NNE,22,0.0,5.0,76,0.00,,CLR,0.00,VWS V14.01,2013-01-01 15:49:00,
2013-01-01 09:54:00,13.5,7.4,30.24,NNE,26,3.0,5.0,76,0.00,,CLR,0.00,VWS V14.01,2013-01-01 15:54:00,
2013-01-01 09:59:00,13.6,7.2,30.24,NNE,33,2.0,6.0,75,0.00,,CLR,0.00,VWS V14.01,2013-01-01 15:59:00,
2013-01-01 10:04:00,13.8,9.6,30.24,NNE,26,0.0,5.0,83,0.00,,CLR,0.00,VWS V14.01,2013-01-01 16:04:00,
2013-01-01 10:09:00,14.5,8.0,30.24,NW,316,0.0,3.0,75,0.00,,CLR,0.00,VWS V14.01,2013-01-01 16:09:00,
2013-01-01 10:14:00,14.4,7.6,30.24,North,355,1.0,3.0,74,0.00,,CLR,0.00,VWS V14.01,2013-01-01 16:14:00,
2013-01-01 10:19:00,14.5,7.7,30.25,North,355,0.0,2.0,74,0.00,,CLR,0.00,VWS V14.01,2013-01-01 16:19:00,
2013-01-01 10:24:00,14.7,7.9,30.25,NE,51,2.0,3.0,74,0.00,,CLR,0.00,VWS V14.01,2013-01-01 16:24:00,
2013-01-01 10:29:00,14.8,8.0,30.25,WNW,295,0.0,3.0,74,0.00,,CLR,0.00,VWS V14.01,2013-01-01 16:29:00,
2013-01-01 10:34:00,15.0,7.9,30.25,NNE,19,0.0,5.0,73,0.00,,CLR,0.00,VWS V14.01,2013-01-01 16:34:00,
2013-01-01 10:39:00,15.3,8.5,30.25,NNE,28,0.0,3.0,74,0.00,,CLR,0.00,VWS V14.01,2013-01-01 16:39:00,
2013-01-01 10:44:00,15.2,7.8,30.25,NNW,329,1.0,2.0,72,0.00,,CLR,0.00,VWS V14.01,2013-01-01 16:44:00,
2013-01-01 10:49:00,15.4,8.0,30.25,North,355,3.0,3.0,72,0.00,,CLR,0.00,VWS V14.01,2013-01-01 16:49:00,
2013-01-01 10:54:00,15.5,8.1,30.24,NNE,13,1.0,5.0,72,0.00,,CLR,0.00,VWS V14.01,2013-01-01 16:54:00,
2013-01-01 10:59:00,15.7,8.3,30.25,WNW,299,0.0,6.0,72,0.00,,CLR,0.00,VWS V14.01,2013-01-01 16:59:00,
2013-01-01 11:04:00,15.8,8.1,30.25,WNW,298,0.0,5.0,71,0.00,,CLR,0.00,VWS V14.01,2013-01-01 17:04:00,
2013-01-01 11:09:00,16.1,8.7,30.24,WNW,292,0.0,6.0,72,0.00,,CLR,0.00,VWS V14.01,2013-01-01 17:09:00,
2013-01-01 11:14:00,16.2,8.8,30.24,WNW,300,2.0,4.0,72,0.00,,CLR,0.00,VWS V14.01,2013-01-01 17:14:00,
2013-01-01 11:19:00,16.5,8.8,30.24,WNW,288,3.0,5.0,71,0.00,,CLR,0.00,VWS V14.01,2013-01-01 17:19:00,
2013-01-01 11:24:00,16.3,8.2,30.24,NNE,24,1.0,4.0,70,0.00,,CLR,0.00,VWS V14.01,2013-01-01 17:24:00,
2013-01-01 11:29:00,16.6,8.9,30.24,WNW,292,1.0,3.0,71,0.00,,CLR,0.00,VWS V14.01,2013-01-01 17:29:00,
2013-01-01 11:34:00,16.7,8.9,30.24,NW,306,1.0,3.0,71,0.00,,CLR,0.00,VWS V14.01,2013-01-01 17:34:00,
2013-01-01 11:39:00,17.0,8.9,30.23,West,275,3.0,6.0,70,0.00,,CLR,0.00,VWS V14.01,2013-01-01 17:39:00,
2013-01-01 11:44:00,16.9,8.8,30.23,WNW,286,0.0,5.0,70,0.00,,CLR,0.00,VWS V14.01,2013-01-01 17:44:00,
2013-01-01 11:49:00,16.6,8.5,30.23,NNE,17,3.0,6.0,70,0.00,,CLR,0.00,VWS V14.01,2013-01-01 17:49:00,
2013-01-01 11:54:00,16.7,8.6,30.23,NW,309,0.0,3.0,70,0.00,,CLR,0.00,VWS V14.01,2013-01-01 17:54:00,
2013-01-01 11:59:00,17.0,8.9,30.23,West,278,0.0,4.0,70,0.00,,CLR,0.00,VWS V14.01,2013-01-01 17:59:00,
2013-01-01 12:04:00,17.0,8.9,30.22,North,9,2.0,3.0,70,0.00,,CLR,0.00,VWS V14.01,2013-01-01 18:04:00,
2013-01-01 12:09:00,17.3,9.2,30.22,WNW,290,0.0,6.0,70,0.00,,CLR,0.00,VWS V14.01,2013-01-01 18:09:00,
2013-01-01 12:14:00,17.3,8.9,30.22,North,355,1.0,4.0,69,0.00,,CLR,0.00,VWS V14.01,2013-01-01 18:14:00,
2013-01-01 12:19:00,17.2,9.1,30.22,NNW,331,0.0,4.0,70,0.00,,CLR,0.00,VWS V14.01,2013-01-01 18:19:00,
2013-01-01 12:24:00,17.3,9.2,30.22,WNW,294,0.0,3.0,70,0.00,,CLR,0.00,VWS V14.01,2013-01-01 18:24:00,
2013-01-01 12:29:00,17.6,9.5,30.22,NW,305,1.0,4.0,70,0.00,,CLR,0.00,VWS V14.01,2013-01-01 18:29:00,
2013-01-01 12:34:00,17.7,9.6,30.22,WNW,295,3.0,3.0,70,0.00,,CLR,0.00,VWS V14.01,2013-01-01 18:34:00,
2013-01-01 12:39:00,17.9,9.8,30.22,WNW,298,1.0,7.0,70,0.00,,CLR,0.00,VWS V14.01,2013-01-01 18:39:00,
2013-01-01 12:44:00,17.9,9.5,30.22,North,5,3.0,6.0,69,0.00,,CLR,0.00,VWS V14.01,2013-01-01 18:44:00,
2013-01-01 12:49:00,17.9,9.5,30.22,North,5,0.0,4.0,69,0.00,,CLR,0.00,VWS V14.01,2013-01-01 18:49:00,
2013-01-01 12:54:00,17.9,9.5,30.21,WNW,288,2.0,8.0,69,0.00,,CLR,0.00,VWS V14.01,2013-01-01 18:54:00,
2013-01-01 12:59:00,18.2,9.4,30.21,NW,311,5.0,6.0,68,0.00,,CLR,0.00,VWS V14.01,2013-01-01 18:59:00,
2013-01-01 13:04:00,18.1,9.3,30.21,WNW,289,1.0,6.0,68,0.00,,CLR,0.00,VWS V14.01,2013-01-01 19:04:00,
2013-01-01 13:09:00,18.4,9.6,30.20,WNW,282,4.0,6.0,68,0.00,,CLR,0.00,VWS V14.01,2013-01-01 19:09:00,
2013-01-01 13:14:00,18.7,9.9,30.20,West,268,0.0,5.0,68,0.00,,CLR,0.00,VWS V14.01,2013-01-01 19:14:00,
2013-01-01 13:19:00,18.9,10.1,30.20,WNW,293,5.0,7.0,68,0.00,,CLR,0.00,VWS V14.01,2013-01-01 19:19:00,
2013-01-01 13:24:00,18.6,9.5,30.20,WNW,288,2.0,6.0,67,0.00,,CLR,0.00,VWS V14.01,2013-01-01 19:24:00,
2013-01-01 13:29:00,18.6,9.8,30.19,WNW,290,1.0,6.0,68,0.00,,CLR,0.00,VWS V14.01,2013-01-01 19:29:00,
2013-01-01 13:34:00,18.8,10.0,30.19,WNW,284,2.0,6.0,68,0.00,,CLR,0.00,VWS V14.01,2013-01-01 19:34:00,
2013-01-01 13:39:00,18.8,9.3,30.19,NNW,331,1.0,8.0,66,0.00,,CLR,0.00,VWS V14.01,2013-01-01 19:39:00,
2013-01-01 13:44:00,18.8,9.3,30.19,WNW,295,0.0,5.0,66,0.00,,CLR,0.00,VWS V14.01,2013-01-01 19:44:00,
2013-01-01 13:49:00,19.2,10.1,30.19,WNW,294,0.0,6.0,67,0.00,,CLR,0.00,VWS V14.01,2013-01-01 19:49:00,
2013-01-01 13:54:00,19.6,10.4,30.19,WNW,294,4.0,5.0,67,0.00,,CLR,0.00,VWS V14.01,2013-01-01 19:54:00,
2013-01-01 13:59:00,19.5,9.7,30.19,WNW,296,0.0,6.0,65,0.00,,CLR,0.00,VWS V14.01,2013-01-01 19:59:00,
2013-01-01 14:04:00,19.2,9.7,30.19,NW,305,1.0,7.0,66,0.00,,CLR,0.00,VWS V14.01,2013-01-01 20:04:00,
2013-01-01 14:09:00,19.4,10.2,30.19,WNW,299,6.0,6.0,67,0.00,,CLR,0.00,VWS V14.01,2013-01-01 20:09:00,
2013-01-01 14:14:00,19.1,9.3,30.18,WNW,290,2.0,7.0,65,0.00,,CLR,0.00,VWS V14.01,2013-01-01 20:14:00,
2013-01-01 14:19:00,19.1,9.3,30.18,NW,308,2.0,9.0,65,0.00,,CLR,0.00,VWS V14.01,2013-01-01 20:19:00,
2013-01-01 14:24:00,18.9,9.4,30.19,WNW,286,3.0,7.0,66,0.00,,CLR,0.00,VWS V14.01,2013-01-01 20:24:00,
2013-01-01 14:29:00,19.2,9.7,30.18,WNW,297,1.0,6.0,66,0.00,,CLR,0.00,VWS V14.01,2013-01-01 20:29:00,
2013-01-01 14:34:00,19.5,10.0,30.18,WNW,299,0.0,7.0,66,0.00,,CLR,0.00,VWS V14.01,2013-01-01 20:34:00,
2013-01-01 14:39:00,19.6,9.4,30.19,WNW,293,2.0,7.0,64,0.00,,CLR,0.00,VWS V14.01,2013-01-01 20:39:00,
2013-01-01 14:44:00,19.7,9.5,30.19,NNW,329,0.0,2.0,64,0.00,,CLR,0.00,VWS V14.01,2013-01-01 20:44:00,
2013-01-01 14:49:00,19.7,9.5,30.18,WNW,286,1.0,7.0,64,0.00,,CLR,0.00,VWS V14.01,2013-01-01 20:49:00,
2013-01-01 14:54:00,19.8,9.9,30.18,WNW,294,0.0,4.0,65,0.00,,CLR,0.00,VWS V14.01,2013-01-01 20:54:00,
2013-01-01 14:59:00,19.8,9.9,30.18,WNW,297,6.0,6.0,65,0.00,,CLR,0.00,VWS V14.01,2013-01-01 20:59:00,
2013-01-01 15:04:00,19.4,9.2,30.18,WNW,290,3.0,10.0,64,0.00,,CLR,0.00,VWS V14.01,2013-01-01 21:04:00,
2013-01-01 15:09:00,19.3,9.8,30.18,West,280,2.0,4.0,66,0.00,,CLR,0.00,VWS V14.01,2013-01-01 21:09:00,
2013-01-01 15:14:00,19.4,9.9,30.18,WNW,294,0.0,7.0,66,0.00,,CLR,0.00,VWS V14.01,2013-01-01 21:14:00,
2013-01-01 15:19:00,19.4,9.9,30.18,WNW,294,4.0,4.0,66,0.00,,CLR,0.00,VWS V14.01,2013-01-01 21:19:00,
2013-01-01 15:24:00,19.3,9.5,30.18,WNW,290,5.0,6.0,65,0.00,,CLR,0.00,VWS V14.01,2013-01-01 21:24:00,
2013-01-01 15:29:00,19.1,9.6,30.19,West,273,1.0,8.0,66,0.00,,CLR,0.00,VWS V14.01,2013-01-01 21:29:00,
2013-01-01 15:34:00,18.8,9.3,30.19,West,279,0.0,6.0,66,0.00,,CLR,0.00,VWS V14.01,2013-01-01 21:34:00,
2013-01-01 15:39:00,18.7,9.6,30.19,WNW,298,3.0,5.0,67,0.00,,CLR,0.00,VWS V14.01,2013-01-01 21:39:00,
2013-01-01 15:44:00,18.6,9.8,30.18,West,279,3.0,6.0,68,0.00,,CLR,0.00,VWS V14.01,2013-01-01 21:44:00,
2013-01-01 15:49:00,18.5,9.7,30.18,WNW,296,3.0,4.0,68,0.00,,CLR,0.00,VWS V14.01,2013-01-01 21:49:00,
2013-01-01 15:54:00,18.3,9.5,30.18,WNW,283,0.0,4.0,68,0.00,,CLR,0.00,VWS V14.01,2013-01-01 21:54:00,
2013-01-01 15:59:00,18.1,9.7,30.19,West,277,0.0,5.0,69,0.00,,CLR,0.00,VWS V14.01,2013-01-01 21:59:00,
2013-01-01 16:04:00,17.9,9.5,30.19,WNW,286,3.0,5.0,69,0.00,,CLR,0.00,VWS V14.01,2013-01-01 22:04:00,
2013-01-01 16:09:00,17.7,9.3,30.18,WNW,289,4.0,5.0,69,0.00,,CLR,0.00,VWS V14.01,2013-01-01 22:09:00,
2013-01-01 16:14:00,17.4,9.3,30.19,WNW,288,1.0,4.0,70,0.00,,CLR,0.00,VWS V14.01,2013-01-01 22:14:00,
2013-01-01 16:19:00,17.0,8.9,30.19,WNW,298,5.0,6.0,70,0.00,,CLR,0.00,VWS V14.01,2013-01-01 22:19:00,
2013-01-01 16:24:00,16.7,8.6,30.19,WNW,284,2.0,3.0,70,0.00,,CLR,0.00,VWS V14.01,2013-01-01 22:24:00,
2013-01-01 16:29:00,16.3,8.2,30.18,WNW,284,1.0,4.0,70,0.00,,CLR,0.00,VWS V14.01,2013-01-01 22:29:00,
2013-01-01 16:33:00,16.1,8.4,30.19,West,279,1.0,4.0,71,0.00,,CLR,0.00,VWS V14.01,2013-01-01 22:33:00,
2013-01-01 16:38:00,15.8,8.1,30.19,West,279,1.0,3.0,71,0.00,,CLR,0.00,VWS V14.01,2013-01-01 22:38:00,
2013-01-01 16:43:00,15.5,8.1,30.18,West,279,2.0,4.0,72,0.00,,CLR,0.00,VWS V14.01,2013-01-01 22:43:00,
2013-01-01 16:48:00,15.3,7.9,30.19,West,279,0.0,4.0,72,0.00,,CLR,0.00,VWS V14.01,2013-01-01 22:48:00,
2013-01-01 16:53:00,15.1,7.7,30.19,West,279,0.0,2.0,72,0.00,,CLR,0.00,VWS V14.01,2013-01-01 22:53:00,
2013-01-01 16:58:00,14.9,7.5,30.19,West,279,0.0,2.0,72,0.00,,CLR,0.00,VWS V14.01,2013-01-01 22:58:00,
2013-01-01 17:03:00,14.6,7.2,30.19,West,279,0.0,1.0,72,0.00,,CLR,0.00,VWS V14.01,2013-01-01 23:03:00,
2013-01-01 17:08:00,14.4,7.3,30.19,West,279,0.0,0.0,73,0.00,,CLR,0.00,VWS V14.01,2013-01-01 23:08:00,
2013-01-01 17:13:00,14.2,7.2,30.19,West,279,0.0,2.0,73,0.00,,CLR,0.00,VWS V14.01,2013-01-01 23:13:00,
2013-01-01 17:18:00,14.0,7.2,30.19,West,279,0.0,0.0,74,0.00,,CLR,0.00,VWS V14.01,2013-01-01 23:18:00,
2013-01-01 17:23:00,13.8,7.1,30.20,West,279,2.0,2.0,74,0.00,,CLR,0.00,VWS V14.01,2013-01-01 23:23:00,
2013-01-01 17:28:00,13.6,6.9,30.20,West,279,0.0,1.0,74,0.00,,CLR,0.00,VWS V14.01,2013-01-01 23:28:00,
2013-01-01 17:33:00,13.4,7.0,30.20,West,279,1.0,1.0,75,0.00,,CLR,0.00,VWS V14.01,2013-01-01 23:33:00,
2013-01-01 17:38:00,13.3,6.9,30.20,West,279,0.0,1.0,75,0.00,,CLR,0.00,VWS V14.01,2013-01-01 23:38:00,
2013-01-01 17:43:00,13.1,6.7,30.19,West,279,0.0,2.0,75,0.00,,CLR,0.00,VWS V14.01,2013-01-01 23:43:00,
2013-01-01 17:48:00,12.8,6.4,30.20,West,279,0.0,0.0,75,0.00,,CLR,0.00,VWS V14.01,2013-01-01 23:48:00,
2013-01-01 17:53:00,12.7,6.3,30.20,West,271,1.0,4.0,75,0.00,,CLR,0.00,VWS V14.01,2013-01-01 23:53:00,
2013-01-01 17:58:00,12.6,6.5,30.20,West,267,0.0,2.0,76,0.00,,CLR,0.00,VWS V14.01,2013-01-01 23:58:00,
2013-01-01 18:03:00,12.6,6.5,30.20,WSW,241,0.0,5.0,76,0.00,,CLR,0.00,VWS V14.01,2013-01-02 00:03:00,
2013-01-01 18:08:00,12.5,6.4,30.20,WSW,241,0.0,3.0,76,0.00,,CLR,0.00,VWS V14.01,2013-01-02 00:08:00,
2013-01-01 18:13:00,12.5,6.7,30.20,WSW,241,1.0,3.0,77,0.00,,CLR,0.00,VWS V14.01,2013-01-02 00:13:00,
2013-01-01 18:18:00,12.4,6.6,30.19,WSW,241,0.0,4.0,77,0.00,,CLR,0.00,VWS V14.01,2013-01-02 00:18:00,
2013-01-01 18:23:00,12.3,6.5,30.19,WSW,241,3.0,3.0,77,0.00,,CLR,0.00,VWS V14.01,2013-01-02 00:23:00,
2013-01-01 18:28:00,12.2,6.4,30.19,WSW,241,0.0,2.0,77,0.00,,CLR,0.00,VWS V14.01,2013-01-02 00:28:00,
2013-01-01 18:33:00,12.2,6.4,30.19,WSW,241,0.0,3.0,77,0.00,,CLR,0.00,VWS V14.01,2013-01-02 00:33:00,
2013-01-01 18:38:00,12.1,6.6,30.19,WSW,248,2.0,3.0,78,0.00,,CLR,0.00,VWS V14.01,2013-01-02 00:38:00,
2013-01-01 18:43:00,12.0,6.5,30.19,WSW,248,3.0,3.0,78,0.00,,CLR,0.00,VWS V14.01,2013-01-02 00:43:00,
2013-01-01 18:48:00,11.9,6.4,30.19,WSW,248,0.0,3.0,78,0.00,,CLR,0.00,VWS V14.01,2013-01-02 00:48:00,
2013-01-01 18:53:00,11.8,6.3,30.20,WSW,248,2.0,4.0,78,0.00,,CLR,0.00,VWS V14.01,2013-01-02 00:53:00,
2013-01-01 18:58:00,11.8,6.3,30.20,WSW,248,2.0,2.0,78,0.00,,CLR,0.00,VWS V14.01,2013-01-02 00:58:00,
2013-01-01 19:03:00,11.8,6.3,30.20,WSW,248,2.0,3.0,78,0.00,,CLR,0.00,VWS V14.01,2013-01-02 01:03:00,
2013-01-01 19:08:00,11.7,6.2,30.20,WSW,250,1.0,4.0,78,0.00,,CLR,0.00,VWS V14.01,2013-01-02 01:08:00,
2013-01-01 19:13:00,11.7,6.2,30.20,WSW,250,2.0,6.0,78,0.00,,CLR,0.00,VWS V14.01,2013-01-02 01:13:00,
2013-01-01 19:18:00,11.6,6.4,30.20,WSW,250,0.0,5.0,79,0.00,,CLR,0.00,VWS V14.01,2013-01-02 01:18:00,
2013-01-01 19:23:00,11.5,6.3,30.21,WSW,250,2.0,5.0,79,0.00,,CLR,0.00,VWS V14.01,2013-01-02 01:23:00,
2013-01-01 19:28:00,11.5,6.3,30.20,WSW,250,1.0,4.0,79,0.00,,CLR,0.00,VWS V14.01,2013-01-02 01:28:00,
2013-01-01 19:33:00,11.4,6.2,30.20,WSW,248,2.0,4.0,79,0.00,,CLR,0.00,VWS V14.01,2013-01-02 01:33:00,
2013-01-01 19:38:00,11.4,6.2,30.20,WSW,248,1.0,4.0,79,0.00,,CLR,0.00,VWS V14.01,2013-01-02 01:38:00,
2013-01-01 19:43:00,11.3,6.1,30.20,WSW,248,2.0,4.0,79,0.00,,CLR,0.00,VWS V14.01,2013-01-02 01:43:00,
2013-01-01 19:48:00,11.2,6.0,30.20,WSW,248,1.0,3.0,79,0.00,,CLR,0.00,VWS V14.01,2013-01-02 01:48:00,
2013-01-01 19:53:00,11.1,5.9,30.20,WSW,248,3.0,4.0,79,0.00,,CLR,0.00,VWS V14.01,2013-01-02 01:53:00,
2013-01-01 19:58:00,11.0,5.8,30.20,WSW,248,2.0,3.0,79,0.00,,CLR,0.00,VWS V14.01,2013-01-02 01:58:00,
2013-01-01 20:03:00,10.9,5.7,30.20,WSW,248,0.0,3.0,79,0.00,,CLR,0.00,VWS V14.01,2013-01-02 02:03:00,
2013-01-01 20:08:00,10.8,5.6,30.20,WSW,248,0.0,2.0,79,0.00,,CLR,0.00,VWS V14.01,2013-01-02 02:08:00,
2013-01-01 20:13:00,10.7,5.5,30.20,WSW,248,0.0,4.0,79,0.00,,CLR,0.00,VWS V14.01,2013-01-02 02:13:00,
2013-01-01 20:18:00,10.6,5.4,30.20,WSW,248,1.0,2.0,79,0.00,,CLR,0.00,VWS V14.01,2013-01-02 02:18:00,
2013-01-01 20:23:00,10.5,5.3,30.20,WSW,248,0.0,2.0,79,0.00,,CLR,0.00,VWS V14.01,2013-01-02 02:23:00,
2013-01-01 20:28:00,10.5,5.6,30.20,WSW,248,1.0,3.0,80,0.00,,CLR,0.00,VWS V14.01,2013-01-02 02:28:00,
2013-01-01 20:33:00,10.4,5.5,30.20,WSW,248,2.0,2.0,80,0.00,,CLR,0.00,VWS V14.01,2013-01-02 02:33:00,
2013-01-01 20:38:00,10.3,5.4,30.20,WSW,248,0.0,0.0,80,0.00,,CLR,0.00,VWS V14.01,2013-01-02 02:38:00,
2013-01-01 20:43:00,10.2,5.3,30.20,WSW,248,0.0,0.0,80,0.00,,CLR,0.00,VWS V14.01,2013-01-02 02:43:00,
2013-01-01 20:48:00,10.1,5.2,30.19,WSW,248,0.0,1.0,80,0.00,,CLR,0.00,VWS V14.01,2013-01-02 02:48:00,
2013-01-01 20:53:00,10.0,5.1,30.19,WSW,248,0.0,0.0,80,0.00,,CLR,0.00,VWS V14.01,2013-01-02 02:53:00,
2013-01-01 20:58:00,10.0,5.1,30.19,WSW,248,0.0,2.0,80,0.00,,CLR,0.00,VWS V14.01,2013-01-02 02:58:00,
2013-01-01 21:03:00,9.9,5.0,30.18,WSW,248,0.0,0.0,80,0.00,,CLR,0.00,VWS V14.01,2013-01-02 03:03:00,
2013-01-01 21:08:00,9.8,4.9,30.18,WSW,248,0.0,0.0,80,0.00,,CLR,0.00,VWS V14.01,2013-01-02 03:08:00,
2013-01-01 21:13:00,9.7,4.8,30.18,WSW,248,0.0,0.0,80,0.00,,CLR,0.00,VWS V14.01,2013-01-02 03:13:00,
2013-01-01 21:18:00,9.5,4.9,30.18,WSW,248,0.0,0.0,81,0.00,,CLR,0.00,VWS V14.01,2013-01-02 03:18:00,
2013-01-01 21:23:00,9.4,4.8,30.19,WSW,248,0.0,1.0,81,0.00,,CLR,0.00,VWS V14.01,2013-01-02 03:23:00,
2013-01-01 21:28:00,9.4,4.8,30.20,WSW,248,0.0,0.0,81,0.00,,CLR,0.00,VWS V14.01,2013-01-02 03:28:00,
2013-01-01 21:33:00,9.3,4.7,30.20,WSW,248,0.0,0.0,81,0.00,,CLR,0.00,VWS V14.01,2013-01-02 03:33:00,
2013-01-01 21:38:00,9.2,4.6,30.20,WSW,248,0.0,0.0,81,0.00,,CLR,0.00,VWS V14.01,2013-01-02 03:38:00,
2013-01-01 21:43:00,9.2,4.6,30.19,WSW,248,0.0,0.0,81,0.00,,CLR,0.00,VWS V14.01,2013-01-02 03:43:00,
2013-01-01 21:48:00,9.1,4.5,30.19,WSW,248,0.0,0.0,81,0.00,,CLR,0.00,VWS V14.01,2013-01-02 03:48:00,
2013-01-01 21:53:00,9.1,4.5,30.19,WSW,248,0.0,0.0,81,0.00,,CLR,0.00,VWS V14.01,2013-01-02 03:53:00,
2013-01-01 21:58:00,9.1,4.5,30.19,WSW,248,0.0,0.0,81,0.00,,CLR,0.00,VWS V14.01,2013-01-02 03:58:00,
2013-01-01 22:03:00,9.0,4.4,30.19,WSW,248,0.0,0.0,81,0.00,,CLR,0.00,VWS V14.01,2013-01-02 04:03:00,
2013-01-01 22:08:00,9.0,4.4,30.19,WSW,248,0.0,0.0,81,0.00,,CLR,0.00,VWS V14.01,2013-01-02 04:08:00,
2013-01-01 22:13:00,8.9,4.3,30.19,WSW,248,0.0,0.0,81,0.00,,CLR,0.00,VWS V14.01,2013-01-02 04:13:00,
2013-01-01 22:18:00,8.9,4.5,30.19,WSW,248,0.0,0.0,82,0.00,,CLR,0.00,VWS V14.01,2013-01-02 04:18:00,
2013-01-01 22:23:00,8.8,4.4,30.19,WSW,248,0.0,0.0,82,0.00,,CLR,0.00,VWS V14.01,2013-01-02 04:23:00,
2013-01-01 22:28:00,8.8,4.4,30.18,WSW,248,0.0,1.0,82,0.00,,CLR,0.00,VWS V14.01,2013-01-02 04:28:00,
2013-01-01 22:33:00,8.8,4.4,30.18,WSW,248,0.0,1.0,82,0.00,,CLR,0.00,VWS V14.01,2013-01-02 04:33:00,
2013-01-01 22:38:00,8.7,4.3,30.18,WSW,248,0.0,0.0,82,0.00,,CLR,0.00,VWS V14.01,2013-01-02 04:38:00,
2013-01-01 22:43:00,8.7,4.3,30.19,WSW,248,0.0,0.0,82,0.00,,CLR,0.00,VWS V14.01,2013-01-02 04:43:00,
2013-01-01 22:48:00,8.7,4.3,30.19,WSW,248,0.0,0.0,82,0.00,,CLR,0.00,VWS V14.01,2013-01-02 04:48:00,
2013-01-01 22:52:00,8.7,4.3,30.19,WSW,248,0.0,0.0,82,0.00,,CLR,0.00,VWS V14.01,2013-01-02 04:52:00,
2013-01-01 22:57:00,8.7,4.3,30.19,WSW,248,3.0,3.0,82,0.00,,CLR,0.00,VWS V14.01,2013-01-02 04:57:00,
2013-01-01 23:00:00,8.8,4.4,30.19,WSW,248,0.0,4.0,82,0.00,,CLR,0.00,VWS V14.01,2013-01-02 05:00:00,
2013-01-01 23:05:00,8.9,4.5,30.19,WSW,248,2.0,4.0,82,0.00,,CLR,0.00,VWS V14.01,2013-01-02 05:05:00,
2013-01-01 23:10:00,9.0,4.6,30.19,WSW,248,0.0,3.0,82,0.00,,CLR,0.00,VWS V14.01,2013-01-02 05:10:00,
2013-01-01 23:15:00,9.1,4.7,30.19,WSW,248,2.0,4.0,82,0.00,,CLR,0.00,VWS V14.01,2013-01-02 05:15:00,
2013-01-01 23:20:00,9.1,4.7,30.19,WSW,248,0.0,0.0,82,0.00,,CLR,0.00,VWS V14.01,2013-01-02 05:20:00,
2013-01-01 23:25:00,9.2,4.8,30.19,WSW,248,2.0,3.0,82,0.00,,CLR,0.00,VWS V14.01,2013-01-02 05:25:00,
2013-01-01 23:30:00,9.3,4.9,30.19,WSW,248,1.0,4.0,82,0.00,,CLR,0.00,VWS V14.01,2013-01-02 05:30:00,
2013-01-01 23:35:00,9.3,4.9,30.19,WSW,248,3.0,3.0,82,0.00,,CLR,0.00,VWS V14.01,2013-01-02 05:35:00,
2013-01-01 23:40:00,9.4,5.0,30.19,WSW,248,0.0,4.0,82,0.00,,CLR,0.00,VWS V14.01,2013-01-02 05:40:00,
2013-01-01 23:45:00,9.4,5.0,30.19,WSW,248,2.0,4.0,82,0.00,,CLR,0.00,VWS V14.01,2013-01-02 05:45:00,
2013-01-01 23:50:00,9.3,4.9,30.19,WSW,248,1.0,3.0,82,0.00,,CLR,0.00,VWS V14.01,2013-01-02 05:50:00,
2013-01-01 23:55:00,9.4,5.0,30.18,WSW,248,1.0,2.0,82,0.00,,CLR,0.00,VWS V14.01,2013-01-02 05:55:00,